createdAt,value
2019-04-07T00:03:40.928Z,17.13
2019-04-07T00:07:46.029Z,18.53
2019-04-07T00:11:50.727Z,15.20
2019-04-07T00:15:54.875Z,18.37
2019-04-07T00:19:58.899Z,17.40
2019-04-07T00:24:03.541Z,18.80
2019-04-07T00:28:07.635Z,18.30
2019-04-07T00:32:11.803Z,18.53
2019-04-07T00:36:16.537Z,19.83
2019-04-07T00:40:20.802Z,19.93
2019-04-07T00:44:25.204Z,21.43
2019-04-07T00:48:29.358Z,21.87
2019-04-07T00:52:33.755Z,26.30
2019-04-07T00:56:37.881Z,23.93
2019-04-07T01:00:42.509Z,22.87
2019-04-07T01:04:47.200Z,21.17
2019-04-07T01:08:51.626Z,22.00
2019-04-07T01:12:56.396Z,21.00
2019-04-07T01:17:01.004Z,21.23
2019-04-07T01:21:05.164Z,21.03
2019-04-07T01:25:09.284Z,20.23
2019-04-07T01:29:13.488Z,19.80
2019-04-07T01:33:17.651Z,24.43
2019-04-07T01:37:22.804Z,20.53
2019-04-07T01:41:39.354Z,20.63
2019-04-07T01:45:52.502Z,21.60
2019-04-07T01:50:15.929Z,21.83
2019-04-07T01:54:39.582Z,22.80
2019-04-07T01:59:02.888Z,21.93
2019-04-07T02:03:18.679Z,21.53
2019-04-07T02:07:38.248Z,23.40
2019-04-07T02:12:01.763Z,25.17
2019-04-07T02:16:25.777Z,23.57
2019-04-07T02:20:57.665Z,24.17
2019-04-07T02:25:09.791Z,23.63
2019-04-07T02:29:24.684Z,22.93
2019-04-07T02:33:35.577Z,25.73
2019-04-07T02:37:45.993Z,22.97
2019-04-07T02:41:57.087Z,21.80
2019-04-07T02:46:11.034Z,22.80
2019-04-07T02:50:22.000Z,25.67
2019-04-07T02:54:46.328Z,22.67
2019-04-07T02:59:10.103Z,21.23
2019-04-07T03:03:22.791Z,23.23
2019-04-07T03:07:37.203Z,23.73
2019-04-07T03:12:00.538Z,19.53
2019-04-07T03:16:10.671Z,16.50
2019-04-07T03:20:25.034Z,21.93
2019-04-07T03:24:37.042Z,16.63
2019-04-07T03:28:50.189Z,15.33
2019-04-07T03:33:15.817Z,20.30
2019-04-07T03:37:42.990Z,18.67
2019-04-07T03:41:47.127Z,18.27
2019-04-07T03:45:58.035Z,16.97
2019-04-07T03:50:23.574Z,18.13
2019-04-07T03:54:40.167Z,15.63
2019-04-07T03:58:59.846Z,18.73
2019-04-07T04:03:11.027Z,18.63
2019-04-07T04:07:36.910Z,16.00
2019-04-07T04:11:55.673Z,18.50
2019-04-07T04:16:03.459Z,20.10
2019-04-07T04:20:08.675Z,15.10
2019-04-07T04:24:12.639Z,14.50
2019-04-07T04:28:16.591Z,16.23
2019-04-07T04:32:21.896Z,16.57
2019-04-07T04:36:27.267Z,18.07
2019-04-07T04:40:32.342Z,17.63
2019-04-07T04:44:36.546Z,15.90
2019-04-07T04:48:40.991Z,14.33
2019-04-07T04:52:45.603Z,20.10
2019-04-07T04:56:50.343Z,14.80
2019-04-07T05:00:54.472Z,19.73
2019-04-07T05:04:59.293Z,17.93
2019-04-07T05:09:05.717Z,15.43
2019-04-07T05:13:09.873Z,14.33
2019-04-07T05:17:13.877Z,15.57
2019-04-07T05:21:18.567Z,15.37
2019-04-07T05:25:22.745Z,15.47
2019-04-07T05:29:26.886Z,13.50
2019-04-07T05:33:30.965Z,16.00
2019-04-07T05:37:35.069Z,14.57
2019-04-07T05:41:39.269Z,20.40
2019-04-07T05:45:43.982Z,17.60
2019-04-07T05:49:48.770Z,15.97
2019-04-07T05:53:54.002Z,14.67
2019-04-07T05:57:58.683Z,13.53
2019-04-07T06:02:04.652Z,11.63
2019-04-07T06:06:09.343Z,13.67
2019-04-07T06:10:13.564Z,14.53
2019-04-07T06:14:17.834Z,12.43
2019-04-07T06:18:21.916Z,13.30
2019-04-07T06:22:25.961Z,11.50
2019-04-07T06:26:30.069Z,14.20
2019-04-07T06:30:36.207Z,13.30
2019-04-07T06:34:42.572Z,14.17
2019-04-07T06:38:50.985Z,12.80
2019-04-07T06:42:52.049Z,13.07
2019-04-07T06:47:04.724Z,12.63
2019-04-07T06:51:15.164Z,12.13
2019-04-07T06:55:28.702Z,13.27
2019-04-07T06:59:47.135Z,13.27
2019-04-07T07:04:08.613Z,13.77
2019-04-07T07:08:33.542Z,11.53
2019-04-07T07:12:45.003Z,11.85
2019-04-07T07:16:57.362Z,10.03
2019-04-07T07:21:23.583Z,11.20
2019-04-07T07:25:29.867Z,10.30
2019-04-07T07:29:33.828Z,9.38
2019-04-07T07:33:39.924Z,11.30
2019-04-07T07:37:58.178Z,12.40
2019-04-07T07:42:00.397Z,10.10
2019-04-07T07:46:04.532Z,10.48
2019-04-07T07:50:09.017Z,11.10
2019-04-07T07:54:14.805Z,11.97
2019-04-07T07:58:19.419Z,9.23
2019-04-07T08:02:24.561Z,10.63
2019-04-07T08:06:29.443Z,10.05
2019-04-07T08:10:34.271Z,10.98
2019-04-07T08:14:38.616Z,9.35
2019-04-07T08:18:45.211Z,10.50
2019-04-07T08:22:49.266Z,10.38
2019-04-07T08:26:56.294Z,11.03
2019-04-07T08:30:59.711Z,9.30
2019-04-07T08:35:05.598Z,9.30
2019-04-07T08:39:21.573Z,9.18
2019-04-07T08:43:19.696Z,7.78
2019-04-07T08:47:23.145Z,7.87
2019-04-07T08:51:30.799Z,7.03
2019-04-07T08:55:33.561Z,9.75
2019-04-07T08:59:42.404Z,7.03
2019-04-07T09:03:45.382Z,5.92
2019-04-07T09:07:49.266Z,6.75
2019-04-07T09:11:56.333Z,6.42
2019-04-07T09:16:06.973Z,5.75
2019-04-07T09:20:30.487Z,9.13
2019-04-07T09:24:50.843Z,5.55
2019-04-07T09:29:08.663Z,5.17
2019-04-07T09:33:34.793Z,5.25
2019-04-07T09:37:43.594Z,6.05
2019-04-07T09:41:55.194Z,4.53
2019-04-07T09:46:10.313Z,6.22
2019-04-07T09:50:33.147Z,5.75
2019-04-07T09:54:44.590Z,5.00
2019-04-07T09:58:55.645Z,6.42
2019-04-07T10:03:11.673Z,5.10
2019-04-07T10:07:33.412Z,4.20
2019-04-07T10:11:51.845Z,4.22
2019-04-07T10:16:15.277Z,4.47
2019-04-07T10:20:31.513Z,5.75
2019-04-07T10:24:45.946Z,3.87
2019-04-07T10:29:09.775Z,4.70
2019-04-07T10:33:29.359Z,3.87
2019-04-07T10:37:42.976Z,4.65
2019-04-07T10:41:54.315Z,3.67
2019-04-07T10:46:05.741Z,3.95
2019-04-07T10:50:30.196Z,4.60
2019-04-07T10:54:40.503Z,6.00
2019-04-07T10:59:04.353Z,4.25
2019-04-07T11:03:30.321Z,5.42
2019-04-07T11:07:54.672Z,7.33
2019-04-07T11:12:18.007Z,7.25
2019-04-07T11:16:36.603Z,6.40
2019-04-07T11:21:00.017Z,6.83
2019-04-07T11:25:24.363Z,8.00
2019-04-07T11:29:38.686Z,5.12
2019-04-07T11:33:49.164Z,4.72
2019-04-07T11:38:12.527Z,8.28
2019-04-07T11:42:24.100Z,6.25
2019-04-07T11:46:48.366Z,5.08
2019-04-07T11:51:00.243Z,5.15
2019-04-07T11:55:13.933Z,5.03
2019-04-07T11:59:32.988Z,4.22
2019-04-07T12:03:45.405Z,4.40
2019-04-07T12:08:02.086Z,5.15
2019-04-07T12:12:20.137Z,5.03
2019-04-07T12:16:43.741Z,5.30
2019-04-07T12:21:02.257Z,4.92
2019-04-07T12:25:15.785Z,4.15
2019-04-07T12:29:28.798Z,6.12
2019-04-07T12:33:45.861Z,4.28
2019-04-07T12:38:01.622Z,3.08
2019-04-07T12:42:14.567Z,4.05
2019-04-07T12:46:27.914Z,7.00
2019-04-07T12:50:52.261Z,3.17
2019-04-07T12:55:07.004Z,3.62
2019-04-07T12:59:30.438Z,2.90
2019-04-07T13:03:42.688Z,5.67
2019-04-07T13:08:01.545Z,3.22
2019-04-07T13:12:15.089Z,3.42
2019-04-07T13:16:27.845Z,4.78
2019-04-07T13:20:49.127Z,4.95
2019-04-07T13:25:07.870Z,2.72
2019-04-07T13:29:20.540Z,3.00
2019-04-07T13:33:37.161Z,2.95
2019-04-07T13:37:52.285Z,3.42
2019-04-07T13:42:05.294Z,2.83
2019-04-07T13:46:24.394Z,3.05
2019-04-07T13:50:43.871Z,3.02
2019-04-07T13:55:04.518Z,2.90
2019-04-07T13:59:23.766Z,2.72
2019-04-07T14:03:35.560Z,3.98
2019-04-07T14:07:51.794Z,4.10
2019-04-07T14:12:12.406Z,3.90
2019-04-07T14:16:31.260Z,3.15
2019-04-07T14:20:55.158Z,2.50
2019-04-07T14:25:15.839Z,2.62
2019-04-07T14:29:35.824Z,2.15
2019-04-07T14:34:00.021Z,2.42
2019-04-07T14:38:24.077Z,2.30
2019-04-07T14:42:47.599Z,1.90
2019-04-07T14:47:11.860Z,2.72
2019-04-07T14:51:36.311Z,3.05
2019-04-07T14:55:50.693Z,1.72
2019-04-07T15:00:03.361Z,2.35
2019-04-07T15:04:08.800Z,2.15
2019-04-07T15:08:21.589Z,2.17
2019-04-07T15:12:31.822Z,2.05
2019-04-07T15:16:36.686Z,2.50
2019-04-07T15:20:43.052Z,1.60
2019-04-07T15:24:47.759Z,3.05
2019-04-07T15:28:52.430Z,2.30
2019-04-07T15:32:58.528Z,5.08
2019-04-07T15:37:04.245Z,2.72
2019-04-07T15:41:14.040Z,2.33
2019-04-07T15:45:15.060Z,1.82
2019-04-07T15:49:19.263Z,1.52
2019-04-07T15:53:25.863Z,1.15
2019-04-07T15:57:30.182Z,1.57
2019-04-07T16:01:36.086Z,1.47
2019-04-07T16:05:42.768Z,1.07
2019-04-07T16:09:52.753Z,1.50
2019-04-07T16:13:52.174Z,1.50
2019-04-07T16:17:56.694Z,1.50
2019-04-07T16:22:01.237Z,1.40
2019-04-07T16:26:06.557Z,1.60
2019-04-07T16:30:10.720Z,1.20
2019-04-07T16:34:15.402Z,1.72
2019-04-07T16:38:19.550Z,1.15
2019-04-07T16:42:23.758Z,1.27
2019-04-07T16:46:31.840Z,1.10
2019-04-07T16:50:35.981Z,1.00
2019-04-07T16:54:43.444Z,1.37
2019-04-07T16:58:46.096Z,2.67
2019-04-07T17:02:51.300Z,2.25
2019-04-07T17:07:03.110Z,1.12
2019-04-07T17:11:04.457Z,1.47
2019-04-07T17:15:08.551Z,2.25
2019-04-07T17:19:18.231Z,2.77
2019-04-07T17:23:24.174Z,1.42
2019-04-07T17:27:29.147Z,1.27
2019-04-07T17:31:33.671Z,2.00
2019-04-07T17:35:39.064Z,1.37
2019-04-07T17:39:49.504Z,4.30
2019-04-07T17:44:16.054Z,1.35
2019-04-07T17:48:41.422Z,0.62
2019-04-07T17:52:55.789Z,0.75
2019-04-07T17:57:06.913Z,1.27
2019-04-07T18:01:31.282Z,1.40
2019-04-07T18:05:43.197Z,1.10
2019-04-07T18:09:58.479Z,0.88
2019-04-07T18:14:22.376Z,1.07
2019-04-07T18:18:43.211Z,1.55
2019-04-07T18:23:00.195Z,2.47
2019-04-07T18:27:15.554Z,1.55
2019-04-07T18:31:29.277Z,2.22
2019-04-07T18:35:43.159Z,2.10
2019-04-07T18:40:03.461Z,1.17
2019-04-07T18:44:27.020Z,2.45
2019-04-07T18:48:43.011Z,2.40
2019-04-07T18:52:57.061Z,4.28
2019-04-07T18:57:10.979Z,2.20
2019-04-07T19:01:39.068Z,3.65
2019-04-07T19:05:46.610Z,1.67
2019-04-07T19:10:06.264Z,1.95
2019-04-07T19:14:38.285Z,2.02
2019-04-07T19:18:48.863Z,2.30
2019-04-07T19:23:13.309Z,2.67
2019-04-07T19:27:37.383Z,3.95
2019-04-07T19:31:52.577Z,3.42
2019-04-07T19:36:18.063Z,4.45
2019-04-07T19:40:29.939Z,6.00
2019-04-07T19:44:48.943Z,7.85
2019-04-07T19:48:57.502Z,6.05
2019-04-07T19:53:12.857Z,7.72
2019-04-07T19:57:24.547Z,10.70
2019-04-07T20:01:48.061Z,11.33
2019-04-07T20:06:11.439Z,14.33
2019-04-07T20:10:32.514Z,14.78
2019-04-07T20:15:03.530Z,18.15
2019-04-07T20:19:20.863Z,53.70
2019-04-07T20:23:32.218Z,155.05
2019-04-07T20:27:44.863Z,76.95
2019-04-07T20:32:08.309Z,26.05
2019-04-07T20:36:27.747Z,19.48
2019-04-07T20:40:42.976Z,18.40
2019-04-07T20:45:02.742Z,18.00
2019-04-07T20:49:18.286Z,17.17
2019-04-07T20:53:39.609Z,19.10
2019-04-07T20:57:54.012Z,16.17
2019-04-07T21:02:09.536Z,19.02
2019-04-07T21:06:28.428Z,19.57
2019-04-07T21:10:51.847Z,19.35
2019-04-07T21:15:16.909Z,18.65
2019-04-07T21:19:29.288Z,16.65
2019-04-07T21:23:52.564Z,19.65
2019-04-07T21:28:07.276Z,19.77
2019-04-07T21:32:27.371Z,18.70
2019-04-07T21:36:40.160Z,20.50
2019-04-07T21:40:51.356Z,21.25
2019-04-07T21:45:15.275Z,21.82
2019-04-07T21:49:39.486Z,19.55
2019-04-07T21:54:03.914Z,20.32
2019-04-07T21:58:25.059Z,21.35
2019-04-07T22:02:40.607Z,21.95
2019-04-07T22:06:49.223Z,19.60
2019-04-07T22:10:53.695Z,17.92
2019-04-07T22:14:57.996Z,18.03
2019-04-07T22:19:02.237Z,21.20
2019-04-07T22:23:09.614Z,17.20
2019-04-07T22:27:13.998Z,17.60
2019-04-07T22:31:23.420Z,18.45
2019-04-07T22:35:27.600Z,16.07
2019-04-07T22:39:32.167Z,19.00
2019-04-07T22:43:36.336Z,15.78
2019-04-07T22:47:40.444Z,14.58
2019-04-07T22:51:47.069Z,19.87
2019-04-07T22:55:50.626Z,15.30
2019-04-07T22:59:54.835Z,17.05
2019-04-07T23:03:58.844Z,15.98
2019-04-07T23:08:03.980Z,19.20
2019-04-07T23:12:08.482Z,17.62
2019-04-07T23:16:15.809Z,15.55
2019-04-07T23:20:20.033Z,14.40
2019-04-07T23:24:24.731Z,16.55
2019-04-07T23:28:29.200Z,16.25
2019-04-07T23:32:34.225Z,13.65
2019-04-07T23:36:38.420Z,15.03
2019-04-07T23:40:42.712Z,15.43
2019-04-07T23:44:46.716Z,15.85
2019-04-07T23:48:51.768Z,14.75
2019-04-07T23:52:58.404Z,16.97
2019-04-07T23:57:02.458Z,13.90
